Diablo — WDG2170 — position and weather

sailwx.info

Track history (hours):
 
Tides and Currents Weather Stations Pressure Air Temp Water Temp Dewpoint Dewpoint Depression Visibility Wind Speed Wind Dir Waves Ship Positions

Diablo

Owner: Harley Marine Services, Inc, Seattle, WA. More information available from US FCC via Universal Licensing System and Coast Guard Vessel Documentation Center.

Last reported at 2017-Nov-23 17:27 UTC. Time now 2017-Nov-24 00:03 UTC.
Position N 29°47' W 095°06'.

Length 24 m; draft 2.6 m.

Type: Tug. MMSI: 367512880.

Date/timePositionNaut miles runAvg speedWind from/ knotsBaromVisibWave heightAir tempDewpointWater temp
2017-Nov-23 17:27N 29°47' W 095°06'1 1.6
2017-Nov-23 16:56N 29°46' W 095°05'2 4.8
2017-Nov-23 16:30N 29°44' W 095°07'1 2.5
2017-Nov-23 16:00N 29°44' W 095°08'0 0.0
2017-Nov-23 15:30N 29°44' W 095°08'0 0.0
2017-Nov-23 15:00N 29°44' W 095°08'0 0.0
2017-Nov-23 14:30N 29°44' W 095°08'0 0.0
2017-Nov-23 14:00N 29°44' W 095°08'0 0.0
2017-Nov-23 13:30N 29°44' W 095°08'0 0.0
2017-Nov-23 13:01N 29°44' W 095°08'0 0.0
2017-Nov-23 12:30N 29°44' W 095°08'0 0.0
2017-Nov-23 11:58N 29°44' W 095°08'0 0.0
2017-Nov-23 11:30N 29°44' W 095°08'0 0.1
2017-Nov-23 11:00N 29°44' W 095°08'3 5.4
2017-Nov-23 10:30N 29°45' W 095°11'4 6.9
2017-Nov-23 10:00N 29°43' W 095°15'2 5.1
2017-Nov-23 09:30N 29°45' W 095°17'1 0.1
2017-Nov-23 03:39N 29°45' W 095°17'0 0.1
2017-Nov-23 02:57N 29°45' W 095°17'2 3.8
2017-Nov-23 02:30N 29°44' W 095°15'2 0.9
2017-Nov-23 00:37N 29°44' W 095°13'0 0.0
2017-Nov-23 00:30N 29°44' W 095°13'0 0.0
2017-Nov-23 00:00N 29°44' W 095°13'0 0.0
2017-Nov-22 23:30N 29°44' W 095°13'0 0.0
2017-Nov-22 21:45N 29°44' W 095°13'0 0.0
2017-Nov-22 21:15N 29°44' W 095°13'  
2017-Nov-20 00:28N 29°41' W 095°01'0 0.0
2017-Nov-19 23:58N 29°41' W 095°01'1 1.8
2017-Nov-19 23:23N 29°42' W 095°00'6 4.0
2017-Nov-19 21:58N 29°46' W 095°05'9 0.8
2017-Nov-19 10:46N 29°44' W 095°15'2 6.4
2017-Nov-19 10:30N 29°44' W 095°14'3 6.2
2017-Nov-19 09:59N 29°45' W 095°10'3 0.3
2017-Nov-18 22:30N 29°46' W 095°07'1 0.2
2017-Nov-18 17:49N 29°47' W 095°06'0 0.8
2017-Nov-18 17:28N 29°46' W 095°06'2 0.1
2017-Nov-18 06:19N 29°45' W 095°06'7 0.5
2017-Nov-17 18:18N 29°44' W 095°14'2 6.8
2017-Nov-17 17:57N 29°45' W 095°11'3 7.2
2017-Nov-17 17:29N 29°44' W 095°07'24641.8
2017-Nov-17 11:35N 29°59' W 090°24'24520.3
2017-Nov-16 23:30N 29°47' W 095°06'1 1.8
2017-Nov-16 23:00N 29°46' W 095°05'1 1.7
2017-Nov-16 22:17N 29°46' W 095°07'0 0.0
2017-Nov-16 13:17N 29°46' W 095°07'1 1.0
2017-Nov-16 12:21N 29°47' W 095°06'0 0.0
2017-Nov-16 02:06N 29°47' W 095°06'0 0.3
2017-Nov-16 01:46N 29°47' W 095°06'1 2.9
2017-Nov-16 01:29N 29°46' W 095°05'1 0.1
2017-Nov-15 08:53N 29°47' W 095°06'0 0.4
2017-Nov-15 08:30N 29°47' W 095°06'1 2.0
2017-Nov-15 08:01N 29°46' W 095°05'244438.2
2017-Nov-15 07:27N 29°59' W 090°24'0 0.0
2017-Nov-15 06:57N 29°59' W 090°24'245101.8
2017-Nov-15 04:33N 29°45' W 095°06'0 1.9
2017-Nov-15 04:30N 29°45' W 095°06'2 0.6
2017-Nov-15 01:17N 29°44' W 095°08'2 0.3
2017-Nov-14 18:13N 29°45' W 095°06'2 2.0
2017-Nov-14 17:19N 29°47' W 095°06'0 0.0
2017-Nov-14 05:41N 29°47' W 095°06'0 1.4
2017-Nov-14 05:21N 29°46' W 095°06'1 4.0
2017-Nov-14 05:00N 29°46' W 095°05'2 4.3
2017-Nov-14 04:29N 29°44' W 095°03'0 0.0
2017-Nov-14 03:56N 29°44' W 095°03'0 0.0
2017-Nov-14 03:29N 29°44' W 095°03'0 0.0
2017-Nov-14 02:59N 29°44' W 095°03'0 0.0
2017-Nov-14 02:29N 29°44' W 095°03'0 0.0
2017-Nov-14 01:59N 29°44' W 095°03'0 0.0
2017-Nov-14 01:29N 29°44' W 095°03'0 0.0
2017-Nov-14 01:00N 29°44' W 095°03'0 0.0
2017-Nov-14 00:30N 29°44' W 095°03'0 0.0
2017-Nov-13 23:57N 29°44' W 095°03'0 0.0
2017-Nov-13 23:30N 29°44' W 095°03'0 0.0
2017-Nov-13 23:00N 29°44' W 095°03'0 0.0
2017-Nov-13 22:30N 29°44' W 095°03'0 0.0
2017-Nov-13 22:00N 29°44' W 095°03'  
Track history (hours):
 
Tides and Currents Weather Stations Pressure Air Temp Water Temp Dewpoint Dewpoint Depression Visibility Wind Speed Wind Dir Waves Ship Positions

Diablo

Owner: Harley Marine Services, Inc, Seattle, WA. More information available from US FCC via Universal Licensing System and Coast Guard Vessel Documentation Center.

Last reported at 2017-Nov-23 17:27 UTC. Time now 2017-Nov-24 00:03 UTC.
Position N 29°47' W 095°06'.

Length 24 m; draft 2.6 m.

Type: Tug. MMSI: 367512880.

Date/timePositionNaut miles runAvg speedWind from/ knotsBaromVisibWave heightAir tempDewpointWater temp
2017-Nov-23 17:27N 29°47' W 095°06'1 1.6
2017-Nov-23 16:56N 29°46' W 095°05'2 4.8
2017-Nov-23 16:30N 29°44' W 095°07'1 2.5
2017-Nov-23 16:00N 29°44' W 095°08'0 0.0
2017-Nov-23 15:30N 29°44' W 095°08'0 0.0
2017-Nov-23 15:00N 29°44' W 095°08'0 0.0
2017-Nov-23 14:30N 29°44' W 095°08'0 0.0
2017-Nov-23 14:00N 29°44' W 095°08'0 0.0
2017-Nov-23 13:30N 29°44' W 095°08'0 0.0
2017-Nov-23 13:01N 29°44' W 095°08'0 0.0
2017-Nov-23 12:30N 29°44' W 095°08'0 0.0
2017-Nov-23 11:58N 29°44' W 095°08'0 0.0
2017-Nov-23 11:30N 29°44' W 095°08'0 0.1
2017-Nov-23 11:00N 29°44' W 095°08'3 5.4
2017-Nov-23 10:30N 29°45' W 095°11'4 6.9
2017-Nov-23 10:00N 29°43' W 095°15'2 5.1
2017-Nov-23 09:30N 29°45' W 095°17'1 0.1
2017-Nov-23 03:39N 29°45' W 095°17'0 0.1
2017-Nov-23 02:57N 29°45' W 095°17'2 3.8
2017-Nov-23 02:30N 29°44' W 095°15'2 0.9
2017-Nov-23 00:37N 29°44' W 095°13'0 0.0
2017-Nov-23 00:30N 29°44' W 095°13'0 0.0
2017-Nov-23 00:00N 29°44' W 095°13'0 0.0
2017-Nov-22 23:30N 29°44' W 095°13'0 0.0
2017-Nov-22 21:45N 29°44' W 095°13'0 0.0
2017-Nov-22 21:15N 29°44' W 095°13'  
2017-Nov-20 00:28N 29°41' W 095°01'0 0.0
2017-Nov-19 23:58N 29°41' W 095°01'1 1.8
2017-Nov-19 23:23N 29°42' W 095°00'6 4.0
2017-Nov-19 21:58N 29°46' W 095°05'9 0.8
2017-Nov-19 10:46N 29°44' W 095°15'2 6.4
2017-Nov-19 10:30N 29°44' W 095°14'3 6.2
2017-Nov-19 09:59N 29°45' W 095°10'3 0.3
2017-Nov-18 22:30N 29°46' W 095°07'1 0.2
2017-Nov-18 17:49N 29°47' W 095°06'0 0.8
2017-Nov-18 17:28N 29°46' W 095°06'2 0.1
2017-Nov-18 06:19N 29°45' W 095°06'7 0.5
2017-Nov-17 18:18N 29°44' W 095°14'2 6.8
2017-Nov-17 17:57N 29°45' W 095°11'3 7.2
2017-Nov-17 17:29N 29°44' W 095°07'24641.8
2017-Nov-17 11:35N 29°59' W 090°24'24520.3
2017-Nov-16 23:30N 29°47' W 095°06'1 1.8
2017-Nov-16 23:00N 29°46' W 095°05'1 1.7
2017-Nov-16 22:17N 29°46' W 095°07'0 0.0
2017-Nov-16 13:17N 29°46' W 095°07'1 1.0
2017-Nov-16 12:21N 29°47' W 095°06'0 0.0
2017-Nov-16 02:06N 29°47' W 095°06'0 0.3
2017-Nov-16 01:46N 29°47' W 095°06'1 2.9
2017-Nov-16 01:29N 29°46' W 095°05'1 0.1
2017-Nov-15 08:53N 29°47' W 095°06'0 0.4
2017-Nov-15 08:30N 29°47' W 095°06'1 2.0
2017-Nov-15 08:01N 29°46' W 095°05'244438.2
2017-Nov-15 07:27N 29°59' W 090°24'0 0.0
2017-Nov-15 06:57N 29°59' W 090°24'245101.8
2017-Nov-15 04:33N 29°45' W 095°06'0 1.9
2017-Nov-15 04:30N 29°45' W 095°06'2 0.6
2017-Nov-15 01:17N 29°44' W 095°08'2 0.3
2017-Nov-14 18:13N 29°45' W 095°06'2 2.0
2017-Nov-14 17:19N 29°47' W 095°06'0 0.0
2017-Nov-14 05:41N 29°47' W 095°06'0 1.4
2017-Nov-14 05:21N 29°46' W 095°06'1 4.0
2017-Nov-14 05:00N 29°46' W 095°05'2 4.3
2017-Nov-14 04:29N 29°44' W 095°03'0 0.0
2017-Nov-14 03:56N 29°44' W 095°03'0 0.0
2017-Nov-14 03:29N 29°44' W 095°03'0 0.0
2017-Nov-14 02:59N 29°44' W 095°03'0 0.0
2017-Nov-14 02:29N 29°44' W 095°03'0 0.0
2017-Nov-14 01:59N 29°44' W 095°03'0 0.0
2017-Nov-14 01:29N 29°44' W 095°03'0 0.0
2017-Nov-14 01:00N 29°44' W 095°03'0 0.0
2017-Nov-14 00:30N 29°44' W 095°03'0 0.0
2017-Nov-13 23:57N 29°44' W 095°03'0 0.0
2017-Nov-13 23:30N 29°44' W 095°03'0 0.0
2017-Nov-13 23:00N 29°44' W 095°03'0 0.0
2017-Nov-13 22:30N 29°44' W 095°03'0 0.0
2017-Nov-13 22:00N 29°44' W 095°03'  

Dump ship's entire track history